sensor_id;sensor_type;location;lat;lon;timestamp;pressure;altitude;pressure_sealevel;temperature;humidity
79577;BME280;69045;48.136;11.386;2024-01-27T00:01:25;96859.41;;;7.00;61.73
79577;BME280;69045;48.136;11.386;2024-01-27T00:03:53;96854.84;;;7.02;62.38
79577;BME280;69045;48.136;11.386;2024-01-27T00:06:21;96849.94;;;6.99;62.07
79577;BME280;69045;48.136;11.386;2024-01-27T00:08:50;96856.59;;;6.93;62.37
79577;BME280;69045;48.136;11.386;2024-01-27T00:11:18;96852.81;;;6.88;62.46
79577;BME280;69045;48.136;11.386;2024-01-27T00:13:47;96856.22;;;6.88;62.07
79577;BME280;69045;48.136;11.386;2024-01-27T00:16:15;96856.69;;;6.83;62.75
79577;BME280;69045;48.136;11.386;2024-01-27T00:18:43;96859.47;;;6.82;62.82
79577;BME280;69045;48.136;11.386;2024-01-27T00:21:11;96870.53;;;6.84;62.84
79577;BME280;69045;48.136;11.386;2024-01-27T00:23:39;96866.28;;;6.83;62.06
79577;BME280;69045;48.136;11.386;2024-01-27T00:26:07;96861.66;;;6.69;62.61
79577;BME280;69045;48.136;11.386;2024-01-27T00:28:35;96873.66;;;6.62;63.46
79577;BME280;69045;48.136;11.386;2024-01-27T00:31:04;96866.66;;;6.62;63.00
79577;BME280;69045;48.136;11.386;2024-01-27T00:33:32;96866.00;;;6.60;63.04
79577;BME280;69045;48.136;11.386;2024-01-27T00:36:03;96865.34;;;6.58;63.07
79577;BME280;69045;48.136;11.386;2024-01-27T00:38:31;96862.22;;;6.54;63.42
79577;BME280;69045;48.136;11.386;2024-01-27T00:40:59;96867.25;;;6.56;62.65
79577;BME280;69045;48.136;11.386;2024-01-27T00:43:27;96858.81;;;6.54;63.01
79577;BME280;69045;48.136;11.386;2024-01-27T00:45:55;96863.03;;;6.55;62.21
79577;BME280;69045;48.136;11.386;2024-01-27T00:48:24;96856.19;;;6.54;62.67
79577;BME280;69045;48.136;11.386;2024-01-27T00:50:52;96852.47;;;6.56;61.83
79577;BME280;69045;48.136;11.386;2024-01-27T00:53:20;96857.53;;;6.58;62.63
79577;BME280;69045;48.136;11.386;2024-01-27T00:55:48;96860.97;;;6.59;61.85
79577;BME280;69045;48.136;11.386;2024-01-27T00:58:17;96863.25;;;6.62;61.80
79577;BME280;69045;48.136;11.386;2024-01-27T01:00:45;96864.06;;;6.62;61.37
79577;BME280;69045;48.136;11.386;2024-01-27T01:03:13;96855.16;;;6.65;61.20
79577;BME280;69045;48.136;11.386;2024-01-27T01:05:42;96854.66;;;6.69;61.62
79577;BME280;69045;48.136;11.386;2024-01-27T01:08:10;96850.63;;;6.75;61.10
79577;BME280;69045;48.136;11.386;2024-01-27T01:10:38;96851.00;;;6.80;60.69
79577;BME280;69045;48.136;11.386;2024-01-27T01:13:06;96855.22;;;6.81;60.66
79577;BME280;69045;48.136;11.386;2024-01-27T01:15:35;96852.28;;;6.84;59.74
79577;BME280;69045;48.136;11.386;2024-01-27T01:18:04;96857.38;;;6.86;59.94
79577;BME280;69045;48.136;11.386;2024-01-27T01:20:32;96871.06;;;6.88;59.88
79577;BME280;69045;48.136;11.386;2024-01-27T01:23:01;96880.00;;;6.85;61.05
79577;BME280;69045;48.136;11.386;2024-01-27T01:25:29;96866.47;;;6.81;61.04
79577;BME280;69045;48.136;11.386;2024-01-27T01:27:57;96868.78;;;6.84;60.07
79577;BME280;69045;48.136;11.386;2024-01-27T01:30:25;96873.13;;;6.84;60.65
79577;BME280;69045;48.136;11.386;2024-01-27T01:32:53;96878.00;;;6.79;60.90
79577;BME280;69045;48.136;11.386;2024-01-27T01:35:21;96881.22;;;6.73;60.10
79577;BME280;69045;48.136;11.386;2024-01-27T01:37:49;96889.00;;;6.65;60.02
79577;BME280;69045;48.136;11.386;2024-01-27T01:40:18;96893.31;;;6.56;61.33
79577;BME280;69045;48.136;11.386;2024-01-27T01:42:50;96889.66;;;6.49;60.40
79577;BME280;69045;48.136;11.386;2024-01-27T01:45:18;96894.38;;;6.45;60.64
79577;BME280;69045;48.136;11.386;2024-01-27T01:47:47;96892.06;;;6.42;60.69
79577;BME280;69045;48.136;11.386;2024-01-27T01:50:15;96897.75;;;6.38;61.18
79577;BME280;69045;48.136;11.386;2024-01-27T01:52:44;96888.97;;;6.39;61.50
79577;BME280;69045;48.136;11.386;2024-01-27T01:55:12;96893.84;;;6.42;61.67
79577;BME280;69045;48.136;11.386;2024-01-27T01:57:42;96886.03;;;6.42;61.24
79577;BME280;69045;48.136;11.386;2024-01-27T02:00:12;96874.53;;;6.44;60.68
79577;BME280;69045;48.136;11.386;2024-01-27T02:02:43;96882.69;;;6.49;60.96
79577;BME280;69045;48.136;11.386;2024-01-27T02:05:11;96894.75;;;6.50;61.43
79577;BME280;69045;48.136;11.386;2024-01-27T02:07:40;96900.63;;;6.52;61.03
79577;BME280;69045;48.136;11.386;2024-01-27T02:10:13;96906.78;;;6.51;61.04
79577;BME280;69045;48.136;11.386;2024-01-27T02:12:44;96899.47;;;6.55;61.01
79577;BME280;69045;48.136;11.386;2024-01-27T02:15:13;96900.97;;;6.57;60.95
79577;BME280;69045;48.136;11.386;2024-01-27T02:17:41;96913.69;;;6.61;60.55
79577;BME280;69045;48.136;11.386;2024-01-27T02:20:10;96914.81;;;6.58;60.94
79577;BME280;69045;48.136;11.386;2024-01-27T02:22:38;96911.06;;;6.61;61.23
79577;BME280;69045;48.136;11.386;2024-01-27T02:25:08;96918.06;;;6.60;60.12
79577;BME280;69045;48.136;11.386;2024-01-27T02:27:36;96913.69;;;6.61;60.50
79577;BME280;69045;48.136;11.386;2024-01-27T02:30:05;96915.53;;;6.68;61.14
79577;BME280;69045;48.136;11.386;2024-01-27T02:32:33;96919.31;;;6.74;60.98
79577;BME280;69045;48.136;11.386;2024-01-27T02:35:01;96925.34;;;6.74;60.07
79577;BME280;69045;48.136;11.386;2024-01-27T02:37:29;96922.88;;;6.73;60.30
79577;BME280;69045;48.136;11.386;2024-01-27T02:39:57;96931.66;;;6.72;59.80
79577;BME280;69045;48.136;11.386;2024-01-27T02:42:27;96930.03;;;6.71;60.26
79577;BME280;69045;48.136;11.386;2024-01-27T02:44:55;96918.13;;;6.68;60.12
79577;BME280;69045;48.136;11.386;2024-01-27T02:47:23;96927.06;;;6.66;61.21
79577;BME280;69045;48.136;11.386;2024-01-27T02:49:51;96922.84;;;6.65;61.09
79577;BME280;69045;48.136;11.386;2024-01-27T02:52:19;96926.38;;;6.64;60.39
79577;BME280;69045;48.136;11.386;2024-01-27T02:54:47;96929.13;;;6.62;60.40
79577;BME280;69045;48.136;11.386;2024-01-27T02:57:15;96931.59;;;6.64;60.35
79577;BME280;69045;48.136;11.386;2024-01-27T02:59:46;96927.34;;;6.63;60.58
79577;BME280;69045;48.136;11.386;2024-01-27T03:02:14;96928.97;;;6.64;60.51
79577;BME280;69045;48.136;11.386;2024-01-27T03:04:42;96925.44;;;6.65;60.70
79577;BME280;69045;48.136;11.386;2024-01-27T03:07:10;96919.09;;;6.67;60.95
79577;BME280;69045;48.136;11.386;2024-01-27T03:09:38;96925.13;;;6.68;60.90
79577;BME280;69045;48.136;11.386;2024-01-27T03:12:06;96926.75;;;6.69;59.81
79577;BME280;69045;48.136;11.386;2024-01-27T03:14:35;96934.28;;;6.72;60.41
79577;BME280;69045;48.136;11.386;2024-01-27T03:17:04;96930.03;;;6.71;59.89
79577;BME280;69045;48.136;11.386;2024-01-27T03:19:32;96934.56;;;6.69;60.34
79577;BME280;69045;48.136;11.386;2024-01-27T03:22:00;96934.72;;;6.67;60.17
79577;BME280;69045;48.136;11.386;2024-01-27T03:24:28;96939.41;;;6.64;59.90
79577;BME280;69045;48.136;11.386;2024-01-27T03:26:56;96950.13;;;6.61;60.43
79577;BME280;69045;48.136;11.386;2024-01-27T03:29:24;96949.31;;;6.60;59.63
79577;BME280;69045;48.136;11.386;2024-01-27T03:31:52;96949.31;;;6.60;59.42
79577;BME280;69045;48.136;11.386;2024-01-27T03:34:21;96956.16;;;6.61;60.16
79577;BME280;69045;48.136;11.386;2024-01-27T03:36:52;96956.81;;;6.63;60.08
79577;BME280;69045;48.136;11.386;2024-01-27T03:39:20;96951.47;;;6.65;59.71
79577;BME280;69045;48.136;11.386;2024-01-27T03:41:47;96962.00;;;6.63;59.83
79577;BME280;69045;48.136;11.386;2024-01-27T03:44:15;96958.59;;;6.63;60.41
79577;BME280;69045;48.136;11.386;2024-01-27T03:46:43;96960.38;;;6.62;59.74
79577;BME280;69045;48.136;11.386;2024-01-27T03:49:11;96960.38;;;6.62;59.62
79577;BME280;69045;48.136;11.386;2024-01-27T03:51:41;96969.69;;;6.65;59.16
79577;BME280;69045;48.136;11.386;2024-01-27T03:54:09;96968.88;;;6.64;59.93
79577;BME280;69045;48.136;11.386;2024-01-27T03:56:37;96979.41;;;6.63;59.19
79577;BME280;69045;48.136;11.386;2024-01-27T03:59:05;96976.81;;;6.63;59.09
79577;BME280;69045;48.136;11.386;2024-01-27T04:01:35;96979.59;;;6.61;59.12
79577;BME280;69045;48.136;11.386;2024-01-27T04:04:03;96977.13;;;6.60;59.67
79577;BME280;69045;48.136;11.386;2024-01-27T04:06:36;96977.28;;;6.58;60.11
79577;BME280;69045;48.136;11.386;2024-01-27T04:09:06;96979.22;;;6.56;59.09
79577;BME280;69045;48.136;11.386;2024-01-27T04:11:36;96980.19;;;6.55;58.98
79577;BME280;69045;48.136;11.386;2024-01-27T04:14:06;96982.63;;;6.56;58.85
79577;BME280;69045;48.136;11.386;2024-01-27T04:16:34;96988.16;;;6.53;58.79
79577;BME280;69045;48.136;11.386;2024-01-27T04:19:02;96988.28;;;6.52;59.91
79577;BME280;69045;48.136;11.386;2024-01-27T04:21:30;96988.97;;;6.54;59.91
79577;BME280;69045;48.136;11.386;2024-01-27T04:23:58;96983.75;;;6.54;59.14
79577;BME280;69045;48.136;11.386;2024-01-27T04:26:28;96983.91;;;6.52;59.73
79577;BME280;69045;48.136;11.386;2024-01-27T04:28:56;96986.66;;;6.51;59.74
79577;BME280;69045;48.136;11.386;2024-01-27T04:31:24;96982.28;;;6.51;58.69
79577;BME280;69045;48.136;11.386;2024-01-27T04:33:52;96981.75;;;6.48;59.50
79577;BME280;69045;48.136;11.386;2024-01-27T04:36:26;96983.53;;;6.47;59.78
79577;BME280;69045;48.136;11.386;2024-01-27T04:38:55;96980.94;;;6.47;59.49
79577;BME280;69045;48.136;11.386;2024-01-27T04:41:23;96980.28;;;6.45;59.35
79577;BME280;69045;48.136;11.386;2024-01-27T04:43:52;96985.75;;;6.42;59.58
79577;BME280;69045;48.136;11.386;2024-01-27T04:46:22;96986.56;;;6.43;59.19
79577;BME280;69045;48.136;11.386;2024-01-27T04:48:50;96981.25;;;6.44;59.96
79577;BME280;69045;48.136;11.386;2024-01-27T04:51:19;96979.28;;;6.46;60.36
79577;BME280;69045;48.136;11.386;2024-01-27T04:53:47;96982.88;;;6.45;59.49
79577;BME280;69045;48.136;11.386;2024-01-27T04:56:15;96990.16;;;6.42;59.83
79577;BME280;69045;48.136;11.386;2024-01-27T04:58:43;96990.97;;;6.42;60.47
79577;BME280;69045;48.136;11.386;2024-01-27T05:01:12;96989.75;;;6.37;59.97
79577;BME280;69045;48.136;11.386;2024-01-27T05:03:40;96987.31;;;6.35;60.20
79577;BME280;69045;48.136;11.386;2024-01-27T05:06:08;96991.69;;;6.35;61.03
79577;BME280;69045;48.136;11.386;2024-01-27T05:08:37;97000.78;;;6.31;60.26
79577;BME280;69045;48.136;11.386;2024-01-27T05:11:06;97001.72;;;6.29;60.36
79577;BME280;69045;48.136;11.386;2024-01-27T05:13:34;97009.53;;;6.29;60.33
79577;BME280;69045;48.136;11.386;2024-01-27T05:16:04;97010.38;;;6.30;61.13
79577;BME280;69045;48.136;11.386;2024-01-27T05:18:34;97012.59;;;6.25;60.94
79577;BME280;69045;48.136;11.386;2024-01-27T05:21:02;97020.84;;;6.20;60.14
79577;BME280;69045;48.136;11.386;2024-01-27T05:23:30;97022.09;;;6.16;60.62
79577;BME280;69045;48.136;11.386;2024-01-27T05:25:58;97019.94;;;6.12;61.35
79577;BME280;69045;48.136;11.386;2024-01-27T05:28:26;97017.69;;;5.99;60.81
79577;BME280;69045;48.136;11.386;2024-01-27T05:30:54;97024.28;;;5.93;61.87
79577;BME280;69045;48.136;11.386;2024-01-27T05:33:22;97027.28;;;5.89;61.59
79577;BME280;69045;48.136;11.386;2024-01-27T05:35:52;97035.91;;;5.89;61.15
79577;BME280;69045;48.136;11.386;2024-01-27T05:38:20;97031.28;;;5.83;61.96
79577;BME280;69045;48.136;11.386;2024-01-27T05:40:48;97036.13;;;5.68;61.41
79577;BME280;69045;48.136;11.386;2024-01-27T05:43:17;97049.53;;;5.27;62.75
79577;BME280;69045;48.136;11.386;2024-01-27T05:45:46;97042.44;;;5.29;63.41
79577;BME280;69045;48.136;11.386;2024-01-27T05:48:14;97049.28;;;5.01;63.96
79577;BME280;69045;48.136;11.386;2024-01-27T05:50:43;97058.75;;;5.02;64.36
79577;BME280;69045;48.136;11.386;2024-01-27T05:53:12;97066.38;;;4.93;64.37
79577;BME280;69045;48.136;11.386;2024-01-27T05:55:40;97067.50;;;4.62;64.52
79577;BME280;69045;48.136;11.386;2024-01-27T05:58:08;97073.22;;;4.75;64.64
79577;BME280;69045;48.136;11.386;2024-01-27T06:00:36;97066.53;;;4.92;64.28
79577;BME280;69045;48.136;11.386;2024-01-27T06:03:04;97071.31;;;4.97;63.81
79577;BME280;69045;48.136;11.386;2024-01-27T06:05:32;97071.56;;;5.03;63.97
79577;BME280;69045;48.136;11.386;2024-01-27T06:08:00;97072.41;;;5.04;64.13
79577;BME280;69045;48.136;11.386;2024-01-27T06:10:30;97082.09;;;5.11;63.74
79577;BME280;69045;48.136;11.386;2024-01-27T06:12:58;97082.34;;;5.18;63.81
79577;BME280;69045;48.136;11.386;2024-01-27T06:15:26;97084.66;;;5.21;63.27
79577;BME280;69045;48.136;11.386;2024-01-27T06:17:54;97082.63;;;5.25;62.82
79577;BME280;69045;48.136;11.386;2024-01-27T06:20:22;97082.75;;;5.23;62.82
79577;BME280;69045;48.136;11.386;2024-01-27T06:22:50;97085.78;;;5.18;63.60
79577;BME280;69045;48.136;11.386;2024-01-27T06:25:19;97079.91;;;5.16;63.20
79577;BME280;69045;48.136;11.386;2024-01-27T06:27:49;97084.94;;;5.18;63.03
79577;BME280;69045;48.136;11.386;2024-01-27T06:30:17;97084.94;;;5.18;63.48
79577;BME280;69045;48.136;11.386;2024-01-27T06:32:46;97089.19;;;5.19;62.96
79577;BME280;69045;48.136;11.386;2024-01-27T06:35:15;97090.00;;;5.19;63.34
79577;BME280;69045;48.136;11.386;2024-01-27T06:37:43;97082.91;;;5.22;63.06
79577;BME280;69045;48.136;11.386;2024-01-27T06:40:12;97085.38;;;5.23;62.65
79577;BME280;69045;48.136;11.386;2024-01-27T06:42:41;97093.16;;;5.23;62.99
79577;BME280;69045;48.136;11.386;2024-01-27T06:45:11;97090.16;;;5.18;63.10
79577;BME280;69045;48.136;11.386;2024-01-27T06:47:39;97090.44;;;5.15;62.83
79577;BME280;69045;48.136;11.386;2024-01-27T06:50:08;97096.84;;;5.11;63.49
79577;BME280;69045;48.136;11.386;2024-01-27T06:52:36;97097.53;;;5.13;63.52
79577;BME280;69045;48.136;11.386;2024-01-27T06:55:04;97093.03;;;5.15;63.18
79577;BME280;69045;48.136;11.386;2024-01-27T06:57:33;97089.47;;;5.16;63.30
79577;BME280;69045;48.136;11.386;2024-01-27T07:00:01;97086.59;;;5.19;63.41
79577;BME280;69045;48.136;11.386;2024-01-27T07:02:31;97096.84;;;5.20;63.65
79577;BME280;69045;48.136;11.386;2024-01-27T07:04:59;97099.16;;;5.24;63.12
79577;BME280;69045;48.136;11.386;2024-01-27T07:07:28;97100.66;;;5.26;62.56
79577;BME280;69045;48.136;11.386;2024-01-27T07:09:56;97100.78;;;5.34;62.66
79577;BME280;69045;48.136;11.386;2024-01-27T07:12:25;97105.31;;;5.42;62.08
79577;BME280;69045;48.136;11.386;2024-01-27T07:14:53;97097.69;;;5.68;61.65
79577;BME280;69045;48.136;11.386;2024-01-27T07:17:24;97101.25;;;6.14;61.53
79577;BME280;69045;48.136;11.386;2024-01-27T07:19:53;97106.34;;;6.96;59.53
79577;BME280;69045;48.136;11.386;2024-01-27T07:22:22;97100.28;;;7.83;56.70
79577;BME280;69045;48.136;11.386;2024-01-27T07:24:50;97102.13;;;8.67;53.93
79577;BME280;69045;48.136;11.386;2024-01-27T07:27:18;97095.97;;;9.34;52.05
79577;BME280;69045;48.136;11.386;2024-01-27T07:29:46;97094.41;;;9.88;50.98
79577;BME280;69045;48.136;11.386;2024-01-27T07:32:15;97090.00;;;10.36;49.57
79577;BME280;69045;48.136;11.386;2024-01-27T07:34:43;97086.59;;;10.89;48.49
79577;BME280;69045;48.136;11.386;2024-01-27T07:37:13;97090.63;;;11.46;46.93
79577;BME280;69045;48.136;11.386;2024-01-27T07:39:41;97088.88;;;12.20;45.45
79577;BME280;69045;48.136;11.386;2024-01-27T07:42:09;97090.84;;;13.05;43.42
79577;BME280;69045;48.136;11.386;2024-01-27T07:44:37;97087.19;;;13.71;41.98
79577;BME280;69045;48.136;11.386;2024-01-27T07:47:05;97085.56;;;14.45;40.61
79577;BME280;69045;48.136;11.386;2024-01-27T07:49:33;97083.97;;;15.25;41.05
79577;BME280;69045;48.136;11.386;2024-01-27T07:52:02;97090.25;;;16.04;40.26
79577;BME280;69045;48.136;11.386;2024-01-27T07:54:31;97096.72;;;16.79;37.95
79577;BME280;69045;48.136;11.386;2024-01-27T07:56:59;97103.34;;;17.33;36.85
79577;BME280;69045;48.136;11.386;2024-01-27T07:59:27;97094.13;;;17.42;36.09
79577;BME280;69045;48.136;11.386;2024-01-27T08:01:55;97103.25;;;17.96;35.25
79577;BME280;69045;48.136;11.386;2024-01-27T08:04:23;97106.25;;;18.25;34.21
79577;BME280;69045;48.136;11.386;2024-01-27T08:06:53;97096.78;;;18.47;33.57
79577;BME280;69045;48.136;11.386;2024-01-27T08:09:21;97096.63;;;18.97;32.46
79577;BME280;69045;48.136;11.386;2024-01-27T08:11:51;97090.75;;;19.07;32.29
79577;BME280;69045;48.136;11.386;2024-01-27T08:14:20;97098.47;;;19.92;33.17
79577;BME280;69045;48.136;11.386;2024-01-27T08:16:49;97096.16;;;20.71;31.92
79577;BME280;69045;48.136;11.386;2024-01-27T08:19:17;97101.13;;;21.36;31.32
79577;BME280;69045;48.136;11.386;2024-01-27T08:21:48;97098.75;;;22.07;30.01
79577;BME280;69045;48.136;11.386;2024-01-27T08:24:16;97102.06;;;22.53;29.17
79577;BME280;69045;48.136;11.386;2024-01-27T08:26:44;97107.28;;;23.08;28.27
79577;BME280;69045;48.136;11.386;2024-01-27T08:29:14;97117.00;;;23.47;27.35
79577;BME280;69045;48.136;11.386;2024-01-27T08:31:42;97112.00;;;23.55;26.87
79577;BME280;69045;48.136;11.386;2024-01-27T08:34:10;97125.50;;;24.03;26.67
79577;BME280;69045;48.136;11.386;2024-01-27T08:36:40;97122.09;;;24.55;24.95
79577;BME280;69045;48.136;11.386;2024-01-27T08:39:08;97123.56;;;24.83;25.36
79577;BME280;69045;48.136;11.386;2024-01-27T08:41:39;97126.28;;;24.88;24.94
79577;BME280;69045;48.136;11.386;2024-01-27T08:44:07;97135.53;;;24.65;25.47
79577;BME280;69045;48.136;11.386;2024-01-27T08:46:36;97132.53;;;25.19;25.03
79577;BME280;69045;48.136;11.386;2024-01-27T08:49:04;97125.88;;;25.21;24.78
79577;BME280;69045;48.136;11.386;2024-01-27T08:51:32;97132.84;;;25.22;24.77
79577;BME280;69045;48.136;11.386;2024-01-27T08:54:01;97140.59;;;25.14;25.02
79577;BME280;69045;48.136;11.386;2024-01-27T08:56:30;97139.84;;;25.59;24.53
79577;BME280;69045;48.136;11.386;2024-01-27T08:58:58;97140.34;;;25.20;23.99
79577;BME280;69045;48.136;11.386;2024-01-27T09:01:26;97136.75;;;24.99;24.09
79577;BME280;69045;48.136;11.386;2024-01-27T09:03:55;97142.13;;;24.42;24.89
79577;BME280;69045;48.136;11.386;2024-01-27T09:06:23;97151.59;;;25.07;24.33
79577;BME280;69045;48.136;11.386;2024-01-27T09:08:56;97143.16;;;24.88;24.76
79577;BME280;69045;48.136;11.386;2024-01-27T09:11:24;97141.22;;;24.31;24.25
79577;BME280;69045;48.136;11.386;2024-01-27T09:13:54;97140.28;;;24.05;25.21
79577;BME280;69045;48.136;11.386;2024-01-27T09:16:22;97135.78;;;24.53;25.20
79577;BME280;69045;48.136;11.386;2024-01-27T09:18:50;97142.59;;;25.74;23.97
79577;BME280;69045;48.136;11.386;2024-01-27T09:21:21;97145.16;;;26.66;23.16
79577;BME280;69045;48.136;11.386;2024-01-27T09:23:55;97145.81;;;25.76;23.41
79577;BME280;69045;48.136;11.386;2024-01-27T09:26:23;97142.78;;;25.37;23.97
79577;BME280;69045;48.136;11.386;2024-01-27T09:28:51;97146.09;;;25.90;23.36
79577;BME280;69045;48.136;11.386;2024-01-27T09:31:21;97141.22;;;25.56;23.17
79577;BME280;69045;48.136;11.386;2024-01-27T09:33:50;97139.06;;;25.58;22.96
79577;BME280;69045;48.136;11.386;2024-01-27T09:36:21;97145.25;;;26.00;23.53
79577;BME280;69045;48.136;11.386;2024-01-27T09:38:49;97141.63;;;26.81;22.49
79577;BME280;69045;48.136;11.386;2024-01-27T09:41:19;97142.31;;;26.17;22.65
79577;BME280;69045;48.136;11.386;2024-01-27T09:43:47;97145.78;;;26.07;22.40
79577;BME280;69045;48.136;11.386;2024-01-27T09:46:17;97151.16;;;26.22;22.31
79577;BME280;69045;48.136;11.386;2024-01-27T09:48:45;97145.22;;;27.20;21.63
79577;BME280;69045;48.136;11.386;2024-01-27T09:51:14;97161.13;;;27.61;21.01
79577;BME280;69045;48.136;11.386;2024-01-27T09:53:44;97166.03;;;27.10;21.26
79577;BME280;69045;48.136;11.386;2024-01-27T09:56:12;97168.16;;;27.08;21.79
79577;BME280;69045;48.136;11.386;2024-01-27T09:58:45;97156.56;;;27.57;20.71
79577;BME280;69045;48.136;11.386;2024-01-27T10:01:16;97163.19;;;27.80;20.62
79577;BME280;69045;48.136;11.386;2024-01-27T10:03:46;97164.38;;;27.58;21.26
79577;BME280;69045;48.136;11.386;2024-01-27T10:06:15;97166.50;;;27.61;20.67
79577;BME280;69045;48.136;11.386;2024-01-27T10:08:51;97165.41;;;27.67;20.98
79577;BME280;69045;48.136;11.386;2024-01-27T10:11:21;97161.00;;;28.16;20.18
79577;BME280;69045;48.136;11.386;2024-01-27T10:13:54;97171.88;;;28.06;21.09
79577;BME280;69045;48.136;11.386;2024-01-27T10:16:26;97169.66;;;27.79;21.08
79577;BME280;69045;48.136;11.386;2024-01-27T10:19:02;97169.53;;;27.55;20.15
79577;BME280;69045;48.136;11.386;2024-01-27T10:21:31;97174.34;;;27.97;20.13
79577;BME280;69045;48.136;11.386;2024-01-27T10:24:01;97164.88;;;27.16;20.97
79577;BME280;69045;48.136;11.386;2024-01-27T10:26:32;97164.34;;;27.19;21.31
79577;BME280;69045;48.136;11.386;2024-01-27T10:29:02;97156.78;;;26.36;22.14
79577;BME280;69045;48.136;11.386;2024-01-27T10:31:33;97162.41;;;25.58;23.31
79577;BME280;69045;48.136;11.386;2024-01-27T10:34:01;97160.44;;;25.18;22.89
79577;BME280;69045;48.136;11.386;2024-01-27T10:36:41;97155.53;;;24.99;23.27
79577;BME280;69045;48.136;11.386;2024-01-27T10:39:21;97158.44;;;26.06;23.02
79577;BME280;69045;48.136;11.386;2024-01-27T10:41:51;97145.06;;;26.91;20.99
79577;BME280;69045;48.136;11.386;2024-01-27T10:44:19;97150.25;;;26.73;22.32
79577;BME280;69045;48.136;11.386;2024-01-27T10:46:49;97141.25;;;27.08;20.72
79577;BME280;69045;48.136;11.386;2024-01-27T10:49:18;97141.72;;;27.25;21.22
79577;BME280;69045;48.136;11.386;2024-01-27T10:51:53;97138.75;;;27.21;21.62
79577;BME280;69045;48.136;11.386;2024-01-27T10:54:26;97140.16;;;26.19;22.71
79577;BME280;69045;48.136;11.386;2024-01-27T10:56:56;97139.50;;;25.10;23.33
79577;BME280;69045;48.136;11.386;2024-01-27T10:59:27;97135.09;;;23.93;24.12
79577;BME280;69045;48.136;11.386;2024-01-27T11:01:56;97143.00;;;24.15;23.70
79577;BME280;69045;48.136;11.386;2024-01-27T11:04:25;97136.56;;;25.11;23.30
79577;BME280;69045;48.136;11.386;2024-01-27T11:06:55;97142.50;;;25.28;23.10
79577;BME280;69045;48.136;11.386;2024-01-27T11:09:28;97147.06;;;25.38;22.63
79577;BME280;69045;48.136;11.386;2024-01-27T11:11:58;97142.50;;;25.28;22.55
79577;BME280;69045;48.136;11.386;2024-01-27T11:14:27;97138.28;;;24.75;22.80
79577;BME280;69045;48.136;11.386;2024-01-27T11:16:55;97127.59;;;24.80;23.63
79577;BME280;69045;48.136;11.386;2024-01-27T11:19:24;97119.06;;;24.93;22.89
79577;BME280;69045;48.136;11.386;2024-01-27T11:22:00;97120.94;;;24.35;23.95
79577;BME280;69045;48.136;11.386;2024-01-27T11:24:30;97122.69;;;23.82;24.15
79577;BME280;69045;48.136;11.386;2024-01-27T11:27:02;97122.97;;;22.78;24.42
79577;BME280;69045;48.136;11.386;2024-01-27T11:29:30;97124.56;;;21.22;26.56
79577;BME280;69045;48.136;11.386;2024-01-27T11:32:01;97121.22;;;20.23;27.69
79577;BME280;69045;48.136;11.386;2024-01-27T11:34:41;97121.34;;;20.16;27.74
79577;BME280;69045;48.136;11.386;2024-01-27T11:37:11;97106.94;;;19.47;28.84
79577;BME280;69045;48.136;11.386;2024-01-27T11:39:41;97107.25;;;19.51;29.03
79577;BME280;69045;48.136;11.386;2024-01-27T11:42:10;97098.78;;;19.30;29.54
79577;BME280;69045;48.136;11.386;2024-01-27T11:44:40;97098.59;;;19.02;29.80
79577;BME280;69045;48.136;11.386;2024-01-27T11:47:14;97100.88;;;18.50;30.57
79577;BME280;69045;48.136;11.386;2024-01-27T11:49:43;97107.03;;;18.07;31.06
79577;BME280;69045;48.136;11.386;2024-01-27T11:52:12;97102.56;;;18.26;32.18
79577;BME280;69045;48.136;11.386;2024-01-27T11:54:41;97106.69;;;18.40;31.42
79577;BME280;69045;48.136;11.386;2024-01-27T11:57:09;97103.75;;;18.30;31.22
79577;BME280;69045;48.136;11.386;2024-01-27T11:59:37;97104.25;;;18.02;31.78
79577;BME280;69045;48.136;11.386;2024-01-27T12:02:05;97106.94;;;17.70;31.88
79577;BME280;69045;48.136;11.386;2024-01-27T12:04:34;97102.78;;;17.56;32.12
79577;BME280;69045;48.136;11.386;2024-01-27T12:07:03;97104.34;;;17.07;32.98
79577;BME280;69045;48.136;11.386;2024-01-27T12:09:31;97097.72;;;16.85;33.57
79577;BME280;69045;48.136;11.386;2024-01-27T12:12:01;97096.66;;;16.41;33.32
79577;BME280;69045;48.136;11.386;2024-01-27T12:14:38;97103.13;;;15.67;34.56
79577;BME280;69045;48.136;11.386;2024-01-27T12:17:08;97110.16;;;15.20;34.76
79577;BME280;69045;48.136;11.386;2024-01-27T12:19:38;97111.63;;;14.62;35.50
79577;BME280;69045;48.136;11.386;2024-01-27T12:22:21;97101.28;;;14.26;36.68
79577;BME280;69045;48.136;11.386;2024-01-27T12:24:49;97101.09;;;14.27;37.86
79577;BME280;69045;48.136;11.386;2024-01-27T12:27:19;97093.75;;;14.16;37.26
79577;BME280;69045;48.136;11.386;2024-01-27T12:29:48;97095.22;;;13.90;37.06
79577;BME280;69045;48.136;11.386;2024-01-27T12:32:18;97087.28;;;13.84;37.22
79577;BME280;69045;48.136;11.386;2024-01-27T12:34:46;97085.47;;;13.56;37.47
79577;BME280;69045;48.136;11.386;2024-01-27T12:37:15;97091.38;;;13.37;39.08
79577;BME280;69045;48.136;11.386;2024-01-27T12:39:44;97087.47;;;13.33;39.33
79577;BME280;69045;48.136;11.386;2024-01-27T12:42:12;97092.88;;;13.25;39.50
79577;BME280;69045;48.136;11.386;2024-01-27T12:44:41;97090.97;;;12.97;39.35
79577;BME280;69045;48.136;11.386;2024-01-27T12:47:10;97086.22;;;13.07;40.00
79577;BME280;69045;48.136;11.386;2024-01-27T12:49:39;97078.75;;;13.11;39.74
79577;BME280;69045;48.136;11.386;2024-01-27T12:52:07;97071.19;;;13.01;40.11
79577;BME280;69045;48.136;11.386;2024-01-27T12:54:35;97077.44;;;13.00;39.97
79577;BME280;69045;48.136;11.386;2024-01-27T12:57:04;97064.53;;;12.84;39.51
79577;BME280;69045;48.136;11.386;2024-01-27T12:59:34;97070.59;;;12.84;39.36
79577;BME280;69045;48.136;11.386;2024-01-27T13:02:03;97060.97;;;12.92;39.19
79577;BME280;69045;48.136;11.386;2024-01-27T13:04:31;97062.53;;;12.86;40.07